Time;durP1;ratioP1;P1;durP2;ratioP2;P2;SDS_P1;SDS_P2;PMS_P1;PMS_P2;Temp;Humidity;BMP_temperature;BMP_pressure;BME280_temperature;BME280_humidity;BME280_pressure;Samples;Min_cycle;Max_cycle;Signal;HPM_P1;HPM_P2
2023/05/08 00:00:50;;;;;;;0.20;0.20;;;;;;;;;;5003038;28;20033;-84
2023/05/08 00:03:16;;;;;;;0.20;0.10;;;;;;;;;;5003358;28;20445;-84
2023/05/08 00:05:42;;;;;;;0.45;0.40;;;;;;;;;;4996732;28;20037;-86
2023/05/08 00:08:13;;;;;;;0.35;0.25;;;;;;;;;;5031043;23;20101;-85
2023/05/08 00:10:39;;;;;;;0.40;0.40;;;;;;;;;;4944706;28;20038;-84
2023/05/08 00:13:05;;;;;;;0.30;0.30;;;;;;;;;;4965618;28;20447;-83
2023/05/08 00:15:31;;;;;;;0.20;0.20;;;;;;;;;;4966560;28;20101;-84
2023/05/08 00:18:00;;;;;;;0.45;0.20;;;;;;;;;;4956287;28;20437;-83
2023/05/08 00:20:26;;;;;;;0.30;0.25;;;;;;;;;;4966690;28;20049;-89
2023/05/08 00:22:56;;;;;;;0.77;0.55;;;;;;;;;;4948190;28;20050;-89
2023/05/08 00:25:30;;;;;;;0.30;0.20;;;;;;;;;;4945063;28;20038;-91
2023/05/08 00:28:02;;;;;;;2.50;0.75;;;;;;;;;;4961107;28;20042;-84
2023/05/08 00:30:42;;;;;;;0.30;0.30;;;;;;;;;;4965137;28;20044;-86
2023/05/08 00:33:10;;;;;;;0.30;0.20;;;;;;;;;;4948790;28;20145;-87
2023/05/08 00:35:41;;;;;;;0.47;0.35;;;;;;;;;;4962080;28;20038;-85
2023/05/08 00:38:07;;;;;;;0.20;0.10;;;;;;;;;;4979840;28;20050;-87
2023/05/08 00:40:43;;;;;;;0.20;0.10;;;;;;;;;;4963965;28;20042;-86
2023/05/08 00:43:09;;;;;;;0.57;0.20;;;;;;;;;;4964354;28;20045;-86
2023/05/08 00:45:47;;;;;;;0.45;0.17;;;;;;;;;;4946762;28;20066;-86
2023/05/08 00:48:27;;;;;;;;;;;;;;;;;;;;;
2023/05/08 00:51:09;;;;;;;0.40;0.38;;;;;;;;;;4969614;28;20066;-89
2023/05/08 00:53:38;;;;;;;0.35;0.35;;;;;;;;;;4965759;28;20852;-86
2023/05/08 00:56:05;;;;;;;0.20;0.10;;;;;;;;;;4969154;28;20490;-85
2023/05/08 00:58:34;;;;;;;0.32;0.30;;;;;;;;;;4963992;28;20121;-86
2023/05/08 01:01:00;;;;;;;0.20;0.10;;;;;;;;;;4949583;28;20744;-85
2023/05/08 01:03:29;;;;;;;0.98;0.52;;;;;;;;;;4951110;28;20050;-84
2023/05/08 01:05:55;;;;;;;0.55;0.43;;;;;;;;;;4985341;28;20045;-86
2023/05/08 01:08:21;;;;;;;0.20;0.10;;;;;;;;;;4966754;28;20045;-85
2023/05/08 01:10:54;;;;;;;0.20;0.10;;;;;;;;;;4966700;28;20244;-87
2023/05/08 01:13:27;;;;;;;0.32;0.20;;;;;;;;;;4967654;28;20042;-86
2023/05/08 01:15:57;;;;;;;0.35;0.35;;;;;;;;;;4949536;28;20434;-86
2023/05/08 01:18:38;;;;;;;2.58;0.30;;;;;;;;;;4966955;28;20042;-84
2023/05/08 01:21:13;;;;;;;0.45;0.30;;;;;;;;;;4984463;28;20034;-85
2023/05/08 01:24:17;;;;;;;0.20;0.13;;;;;;;;;;4979069;28;20128;-89
2023/05/08 01:26:53;;;;;;;0.20;0.10;;;;;;;;;;4966062;28;20129;-85
2023/05/08 01:29:25;;;;;;;0.47;0.38;;;;;;;;;;4967029;28;20088;-85
2023/05/08 01:32:03;;;;;;;0.20;0.10;;;;;;;;;;4968745;28;20371;-85
2023/05/08 01:34:33;;;;;;;0.20;0.10;;;;;;;;;;4970644;28;20042;-88
2023/05/08 01:37:19;;;;;;;0.60;0.57;;;;;;;;;;4967657;28;20038;-86
2023/05/08 01:39:52;;;;;;;0.30;0.15;;;;;;;;;;4966831;28;20120;-89
2023/05/08 01:42:23;;;;;;;0.38;0.17;;;;;;;;;;4967030;28;20050;-86
2023/05/08 01:44:56;;;;;;;0.30;0.20;;;;;;;;;;4966834;28;20124;-88
2023/05/08 01:47:26;;;;;;;0.60;0.30;;;;;;;;;;4951692;28;20085;-86
2023/05/08 01:50:03;;;;;;;0.20;0.20;;;;;;;;;;4985615;28;20042;-83
2023/05/08 01:52:58;;;;;;;0.20;0.10;;;;;;;;;;4968854;28;20042;-85
2023/05/08 01:55:26;;;;;;;0.20;0.10;;;;;;;;;;4963083;28;20046;-84
2023/05/08 01:57:56;;;;;;;0.20;0.10;;;;;;;;;;4966234;28;20054;-88
2023/05/08 02:00:23;;;;;;;0.20;0.17;;;;;;;;;;4962873;28;20049;-85
2023/05/08 02:02:50;;;;;;;0.20;0.10;;;;;;;;;;4969206;28;20052;-86
2023/05/08 02:05:17;;;;;;;0.20;0.20;;;;;;;;;;4967207;28;20311;-86
2023/05/08 02:07:48;;;;;;;0.20;0.10;;;;;;;;;;4964476;28;20038;-87
2023/05/08 02:10:21;;;;;;;0.30;0.20;;;;;;;;;;4952656;28;20057;-86
2023/05/08 02:12:48;;;;;;;0.40;0.30;;;;;;;;;;4948576;28;20045;-88
2023/05/08 02:15:24;;;;;;;0.35;0.35;;;;;;;;;;4948783;28;20076;-85
2023/05/08 02:17:59;;;;;;;0.20;0.13;;;;;;;;;;4966272;28;20108;-85
2023/05/08 02:20:26;;;;;;;0.20;0.10;;;;;;;;;;4962385;28;20131;-85
2023/05/08 02:22:52;;;;;;;0.25;0.20;;;;;;;;;;4967702;28;20526;-86
2023/05/08 02:25:19;;;;;;;1.10;0.40;;;;;;;;;;4950474;28;20684;-86
2023/05/08 02:28:02;;;;;;;0.20;0.10;;;;;;;;;;4962421;28;20586;-86
2023/05/08 02:30:31;;;;;;;0.20;0.10;;;;;;;;;;4963316;28;20049;-84
2023/05/08 02:33:00;;;;;;;0.20;0.10;;;;;;;;;;4968153;28;20042;-86
2023/05/08 02:35:28;;;;;;;0.20;0.20;;;;;;;;;;4968090;28;20093;-85
2023/05/08 02:38:09;;;;;;;0.20;0.15;;;;;;;;;;4962846;28;20038;-85
2023/05/08 02:40:36;;;;;;;0.63;0.40;;;;;;;;;;4949141;28;20061;-86
2023/05/08 02:43:02;;;;;;;0.20;0.10;;;;;;;;;;4966176;28;20046;-88
2023/05/08 02:45:31;;;;;;;0.65;0.28;;;;;;;;;;4951918;28;20042;-87
2023/05/08 02:48:03;;;;;;;0.65;0.30;;;;;;;;;;4963824;28;20286;-85
2023/05/08 02:50:42;;;;;;;0.20;0.10;;;;;;;;;;4982056;28;20119;-84
2023/05/08 02:53:13;;;;;;;0.30;0.30;;;;;;;;;;4963887;28;20030;-85
2023/05/08 02:55:40;;;;;;;0.20;0.10;;;;;;;;;;4962844;28;20045;-87
2023/05/08 02:58:25;;;;;;;0.20;0.10;;;;;;;;;;4948065;28;20038;-85
2023/05/08 03:01:05;;;;;;;0.20;0.08;;;;;;;;;;4965232;28;20053;-86
2023/05/08 03:03:51;;;;;;;0.20;0.13;;;;;;;;;;4965422;28;20045;-87
2023/05/08 03:06:26;;;;;;;1.30;1.00;;;;;;;;;;4949443;28;20049;-86
2023/05/08 03:08:58;;;;;;;0.40;0.30;;;;;;;;;;4963883;28;20093;-88
2023/05/08 03:11:28;;;;;;;0.55;0.55;;;;;;;;;;4960798;28;20451;-86
2023/05/08 03:13:56;;;;;;;0.20;0.20;;;;;;;;;;4966427;28;20057;-86
2023/05/08 03:16:24;;;;;;;0.45;0.45;;;;;;;;;;4962495;28;20038;-85
2023/05/08 03:18:50;;;;;;;0.30;0.20;;;;;;;;;;4966379;28;20041;-87
2023/05/08 03:21:23;;;;;;;0.20;0.10;;;;;;;;;;4966647;28;20065;-89
2023/05/08 03:24:19;;;;;;;0.20;0.20;;;;;;;;;;4961712;28;20042;-85
2023/05/08 03:27:02;;;;;;;0.65;0.30;;;;;;;;;;4966155;28;20137;-85
2023/05/08 03:29:36;;;;;;;0.20;0.20;;;;;;;;;;4966573;28;20525;-87
2023/05/08 03:32:21;;;;;;;0.20;0.10;;;;;;;;;;4965731;28;20054;-86
2023/05/08 03:34:48;;;;;;;0.20;0.20;;;;;;;;;;4980098;28;20065;-86
2023/05/08 03:37:14;;;;;;;0.20;0.10;;;;;;;;;;4967721;28;20042;-86
2023/05/08 03:39:52;;;;;;;0.43;0.43;;;;;;;;;;4966930;28;20049;-87
2023/05/08 03:42:21;;;;;;;0.20;0.20;;;;;;;;;;4948872;28;20057;-85
2023/05/08 03:44:54;;;;;;;0.22;0.22;;;;;;;;;;4979342;28;20230;-85
2023/05/08 03:47:29;;;;;;;0.45;0.35;;;;;;;;;;4964979;28;20050;-85
2023/05/08 03:50:05;;;;;;;0.20;0.15;;;;;;;;;;4968524;28;20497;-87
2023/05/08 03:52:32;;;;;;;0.28;0.28;;;;;;;;;;4970256;28;20046;-85
2023/05/08 03:55:06;;;;;;;0.40;0.30;;;;;;;;;;4967449;28;20034;-86
2023/05/08 03:58:05;;;;;;;0.90;0.60;;;;;;;;;;5022223;23;20152;-86
2023/05/08 04:00:36;;;;;;;0.20;0.10;;;;;;;;;;4985429;28;20061;-84
2023/05/08 04:03:05;;;;;;;0.20;0.20;;;;;;;;;;4980371;28;20049;-87
2023/05/08 04:05:58;;;;;;;0.20;0.20;;;;;;;;;;4976999;28;20048;-86
2023/05/08 04:08:32;;;;;;;0.28;0.28;;;;;;;;;;5160679;23;20100;-89
2023/05/08 04:11:28;;;;;;;0.57;0.57;;;;;;;;;;4974929;28;20046;-86
2023/05/08 04:14:26;;;;;;;0.20;0.10;;;;;;;;;;4997059;28;20038;-88
2023/05/08 04:17:25;;;;;;;0.40;0.35;;;;;;;;;;4984676;28;20038;-88
2023/05/08 04:19:55;;;;;;;0.20;0.20;;;;;;;;;;4994279;28;20502;-87
2023/05/08 04:22:24;;;;;;;0.20;0.17;;;;;;;;;;4982640;28;20077;-86
2023/05/08 04:24:54;;;;;;;0.20;0.10;;;;;;;;;;4978815;28;20046;-87
2023/05/08 04:27:20;;;;;;;1.60;0.63;;;;;;;;;;4977120;28;20074;-86
2023/05/08 04:29:46;;;;;;;0.20;0.10;;;;;;;;;;4978837;28;20078;-85
2023/05/08 04:32:18;;;;;;;0.40;0.30;;;;;;;;;;4981008;28;20554;-89
2023/05/08 04:37:43;;;;;;;0.43;0.30;;;;;;;;;;5001871;28;20299;-86
2023/05/08 04:40:28;;;;;;;0.57;0.25;;;;;;;;;;4988125;28;20038;-85
2023/05/08 04:43:00;;;;;;;0.52;0.50;;;;;;;;;;4973324;28;20491;-85
2023/05/08 04:45:35;;;;;;;0.20;0.10;;;;;;;;;;4976523;28;20042;-83
2023/05/08 04:48:11;;;;;;;0.20;0.10;;;;;;;;;;4975298;28;20494;-86
2023/05/08 04:50:38;;;;;;;0.20;0.20;;;;;;;;;;4999799;28;20069;-85
2023/05/08 04:53:48;;;;;;;0.30;0.20;;;;;;;;;;4985817;28;20120;-90
2023/05/08 04:56:14;;;;;;;0.20;0.10;;;;;;;;;;4927752;28;20042;-83
2023/05/08 04:58:45;;;;;;;0.20;0.10;;;;;;;;;;4930609;28;20054;-86
2023/05/08 05:01:14;;;;;;;0.20;0.10;;;;;;;;;;4953157;28;20046;-86
2023/05/08 05:03:40;;;;;;;0.20;0.10;;;;;;;;;;5001612;28;20056;-84
2023/05/08 05:06:06;;;;;;;0.85;0.30;;;;;;;;;;4986847;28;20049;-87
2023/05/08 05:08:33;;;;;;;0.30;0.30;;;;;;;;;;4978521;28;20038;-88
2023/05/08 05:11:09;;;;;;;0.63;0.22;;;;;;;;;;4993999;28;20034;-90
2023/05/08 05:13:46;;;;;;;0.20;0.10;;;;;;;;;;4988007;28;20050;-86
2023/05/08 05:16:21;;;;;;;0.20;0.20;;;;;;;;;;4982488;28;20030;-86
2023/05/08 05:18:47;;;;;;;0.60;0.60;;;;;;;;;;4980443;28;20085;-84
2023/05/08 05:21:13;;;;;;;0.20;0.10;;;;;;;;;;4974057;28;20058;-84
2023/05/08 05:23:40;;;;;;;0.20;0.10;;;;;;;;;;4974248;28;20046;-85
2023/05/08 05:26:06;;;;;;;1.15;0.40;;;;;;;;;;4991694;28;20132;-84
2023/05/08 05:28:32;;;;;;;0.30;0.20;;;;;;;;;;4982702;28;20057;-86
2023/05/08 05:31:10;;;;;;;0.20;0.10;;;;;;;;;;4998539;28;20046;-83
2023/05/08 05:33:36;;;;;;;0.30;0.30;;;;;;;;;;4979062;28;20490;-86
2023/05/08 05:36:02;;;;;;;0.30;0.20;;;;;;;;;;4976887;28;20403;-83
2023/05/08 05:38:28;;;;;;;0.20;0.10;;;;;;;;;;4997560;28;20101;-86
2023/05/08 05:40:54;;;;;;;0.20;0.10;;;;;;;;;;4984468;28;20048;-84
2023/05/08 05:43:20;;;;;;;0.20;0.10;;;;;;;;;;4999723;28;20538;-86
2023/05/08 05:45:49;;;;;;;0.32;0.20;;;;;;;;;;4999233;28;20076;-86
2023/05/08 05:48:18;;;;;;;0.85;0.43;;;;;;;;;;5000743;28;20101;-85
2023/05/08 05:50:44;;;;;;;0.68;0.68;;;;;;;;;;4977319;28;20491;-83
2023/05/08 05:53:22;;;;;;;0.28;0.20;;;;;;;;;;4984200;28;20034;-88
2023/05/08 05:55:48;;;;;;;0.65;0.50;;;;;;;;;;4979016;28;20049;-88
2023/05/08 05:58:16;;;;;;;0.20;0.10;;;;;;;;;;4999145;28;20041;-85
2023/05/08 06:00:46;;;;;;;0.20;0.10;;;;;;;;;;4993174;28;20057;-84
2023/05/08 06:03:14;;;;;;;0.68;0.30;;;;;;;;;;4984266;28;20556;-87
2023/05/08 06:05:40;;;;;;;0.68;0.43;;;;;;;;;;4982447;28;20140;-84
2023/05/08 06:08:14;;;;;;;0.40;0.40;;;;;;;;;;4992573;23;20396;-87
2023/05/08 06:10:43;;;;;;;0.40;0.40;;;;;;;;;;4961304;28;20042;-86
2023/05/08 06:13:10;;;;;;;0.20;0.10;;;;;;;;;;4981161;28;20096;-86
2023/05/08 06:15:40;;;;;;;0.43;0.40;;;;;;;;;;4961829;28;20046;-85
2023/05/08 06:18:15;;;;;;;0.20;0.10;;;;;;;;;;4971103;28;20083;-87
2023/05/08 06:20:49;;;;;;;0.20;0.17;;;;;;;;;;4985601;28;20041;-86
2023/05/08 06:23:34;;;;;;;0.47;0.30;;;;;;;;;;4980681;28;20478;-86
2023/05/08 06:26:00;;;;;;;0.20;0.10;;;;;;;;;;4984925;28;20045;-87
2023/05/08 06:28:33;;;;;;;0.20;0.10;;;;;;;;;;4968021;28;20510;-86
2023/05/08 06:31:02;;;;;;;0.77;0.20;;;;;;;;;;4980175;28;20634;-85
2023/05/08 06:33:50;;;;;;;;;;;;;;;;;;;;;
2023/05/08 06:36:20;;;;;;;1.27;0.85;;;;;;;;;;4979671;28;20628;-85
2023/05/08 06:39:17;;;;;;;0.40;0.20;;;;;;;;;;4981561;28;20427;-84
2023/05/08 06:41:49;;;;;;;0.20;0.10;;;;;;;;;;4967428;28;20626;-87
2023/05/08 06:44:18;;;;;;;;;;;;;;;;;;4959348;28;20077;-86
2023/05/08 06:47:00;;;;;;;0.30;0.20;;;;;;;;;;4963950;28;19949;-86
2023/05/08 06:49:31;;;;;;;0.25;0.20;;;;;;;;;;4982749;28;20112;-86
2023/05/08 06:52:16;;;;;;;0.20;0.10;;;;;;;;;;4966121;28;20056;-90
2023/05/08 06:54:49;;;;;;;0.20;0.10;;;;;;;;;;4964191;28;20057;-85
2023/05/08 06:57:16;;;;;;;0.30;0.15;;;;;;;;;;4975745;28;20049;-85
2023/05/08 06:59:55;;;;;;;0.20;0.20;;;;;;;;;;4963668;28;20042;-87
2023/05/08 07:02:26;;;;;;;0.30;0.30;;;;;;;;;;4972732;28;20056;-85
2023/05/08 07:04:53;;;;;;;0.20;0.20;;;;;;;;;;4969110;28;20045;-88
2023/05/08 07:07:24;;;;;;;0.20;0.10;;;;;;;;;;4963556;28;20097;-87
2023/05/08 07:10:07;;;;;;;;;;;;;;;;;;;;;
2023/05/08 07:12:53;;;;;;;0.20;0.10;;;;;;;;;;4979459;28;20431;-87
2023/05/08 07:15:20;;;;;;;0.20;0.10;;;;;;;;;;4978942;28;20074;-87
2023/05/08 07:17:55;;;;;;;0.20;0.10;;;;;;;;;;4955232;28;20045;-87
2023/05/08 07:20:27;;;;;;;0.30;0.20;;;;;;;;;;4978969;28;20453;-85
2023/05/08 07:22:57;;;;;;;0.30;0.30;;;;;;;;;;4977401;28;20121;-88
2023/05/08 07:25:23;;;;;;;0.20;0.10;;;;;;;;;;4967259;28;20403;-83
2023/05/08 07:28:12;;;;;;;0.20;0.10;;;;;;;;;;4998321;28;20655;-87
2023/05/08 07:30:57;;;;;;;0.38;0.20;;;;;;;;;;4970157;28;20069;-87
2023/05/08 07:33:28;;;;;;;0.20;0.10;;;;;;;;;;4962323;28;20038;-86
2023/05/08 07:36:00;;;;;;;0.20;0.10;;;;;;;;;;4982962;28;20025;-87
2023/05/08 07:38:45;;;;;;;0.35;0.20;;;;;;;;;;4959429;28;20057;-86
2023/05/08 07:41:11;;;;;;;0.30;0.20;;;;;;;;;;4966624;28;20037;-84
2023/05/08 07:43:48;;;;;;;0.20;0.10;;;;;;;;;;4966198;28;20124;-85
2023/05/08 07:46:30;;;;;;;0.43;0.20;;;;;;;;;;4990190;28;20054;-85
2023/05/08 07:49:08;;;;;;;0.20;0.10;;;;;;;;;;4963384;28;20420;-87
2023/05/08 07:52:07;;;;;;;0.20;0.10;;;;;;;;;;4943462;28;20035;-86
2023/05/08 07:54:36;;;;;;;0.25;0.25;;;;;;;;;;4956742;28;20494;-85
2023/05/08 07:57:11;;;;;;;0.20;0.10;;;;;;;;;;4977808;28;20072;-84
2023/05/08 07:59:49;;;;;;;0.20;0.10;;;;;;;;;;4961935;28;20391;-86
2023/05/08 08:02:15;;;;;;;0.45;0.20;;;;;;;;;;4976347;28;20493;-85
2023/05/08 08:04:48;;;;;;;0.20;0.10;;;;;;;;;;4958155;28;20049;-86
2023/05/08 08:07:14;;;;;;;0.20;0.10;;;;;;;;;;4961916;28;20045;-86
2023/05/08 08:09:56;;;;;;;0.20;0.10;;;;;;;;;;4970103;28;20500;-83
2023/05/08 08:12:27;;;;;;;0.20;0.10;;;;;;;;;;4954726;28;20049;-84
2023/05/08 08:14:59;;;;;;;0.20;0.10;;;;;;;;;;4947044;28;20519;-85
2023/05/08 08:17:25;;;;;;;0.20;0.10;;;;;;;;;;4940595;28;20047;-85
2023/05/08 08:20:03;;;;;;;0.20;0.10;;;;;;;;;;4952360;28;20884;-86
2023/05/08 08:22:29;;;;;;;0.20;0.20;;;;;;;;;;4948292;28;20046;-84
2023/05/08 08:24:55;;;;;;;0.25;0.20;;;;;;;;;;4953099;28;20053;-84
2023/05/08 08:27:50;;;;;;;0.55;0.52;;;;;;;;;;4968158;28;20077;-85
2023/05/08 08:30:30;;;;;;;0.20;0.20;;;;;;;;;;4937849;28;20062;-86
2023/05/08 08:33:00;;;;;;;0.43;0.43;;;;;;;;;;4954570;28;20039;-84
2023/05/08 08:35:31;;;;;;;0.32;0.30;;;;;;;;;;4952992;28;20039;-86
2023/05/08 08:38:19;;;;;;;0.55;0.55;;;;;;;;;;4939945;28;20061;-83
2023/05/08 08:40:45;;;;;;;0.30;0.30;;;;;;;;;;4940491;28;20133;-83
2023/05/08 08:43:18;;;;;;;0.20;0.10;;;;;;;;;;4953295;28;20074;-85
2023/05/08 08:49:10;;;;;;;0.20;0.20;;;;;;;;;;5022228;23;20519;-86
2023/05/08 08:52:19;;;;;;;0.32;0.28;;;;;;;;;;4996192;28;20105;-86
2023/05/08 08:55:28;;;;;;;0.20;0.17;;;;;;;;;;4945987;28;20580;-85
2023/05/08 09:03:33;;;;;;;0.20;0.20;;;;;;;;;;4960667;28;20055;-86
2023/05/08 09:09:47;;;;;;;0.20;0.20;;;;;;;;;;4911303;28;20055;-84
2023/05/08 09:12:19;;;;;;;0.20;0.20;;;;;;;;;;4926965;28;20511;-83
2023/05/08 09:14:48;;;;;;;0.20;0.10;;;;;;;;;;4936806;28;20507;-83
2023/05/08 09:17:20;;;;;;;0.45;0.20;;;;;;;;;;4924803;28;20043;-86
2023/05/08 09:19:55;;;;;;;1.80;0.85;;;;;;;;;;4924175;28;20035;-84
2023/05/08 09:22:23;;;;;;;0.32;0.22;;;;;;;;;;4936292;28;20035;-86
2023/05/08 09:24:58;;;;;;;0.25;0.20;;;;;;;;;;4963761;28;20074;-83
2023/05/08 09:27:25;;;;;;;0.20;0.20;;;;;;;;;;4940301;28;20042;-85
2023/05/08 09:30:19;;;;;;;0.20;0.20;;;;;;;;;;4931949;28;20090;-85
2023/05/08 09:36:33;;;;;;;0.20;0.10;;;;;;;;;;4928338;28;20072;-83
2023/05/08 09:39:12;;;;;;;0.20;0.10;;;;;;;;;;4925613;28;20055;-84
2023/05/08 09:42:19;;;;;;;0.35;0.25;;;;;;;;;;4928094;28;20039;-85
2023/05/08 09:44:55;;;;;;;0.60;0.28;;;;;;;;;;4936870;28;20090;-85
2023/05/08 09:47:22;;;;;;;0.25;0.20;;;;;;;;;;4926316;28;20522;-82
2023/05/08 09:50:26;;;;;;;0.40;0.40;;;;;;;;;;4927207;28;20738;-85
2023/05/08 09:53:00;;;;;;;0.20;0.10;;;;;;;;;;4933229;28;20035;-85
2023/05/08 09:55:45;;;;;;;0.30;0.20;;;;;;;;;;4928757;28;20190;-84
2023/05/08 09:58:12;;;;;;;0.20;0.20;;;;;;;;;;4926770;28;20069;-83
2023/05/08 10:00:38;;;;;;;0.28;0.28;;;;;;;;;;4940623;28;20261;-83
2023/05/08 10:03:04;;;;;;;0.65;0.40;;;;;;;;;;4923537;28;20065;-85
2023/05/08 10:05:39;;;;;;;0.20;0.10;;;;;;;;;;4932188;28;20441;-84
2023/05/08 10:08:18;;;;;;;0.90;0.52;;;;;;;;;;4926015;28;20039;-82
2023/05/08 10:10:45;;;;;;;0.30;0.20;;;;;;;;;;4919804;28;20043;-82
2023/05/08 10:13:11;;;;;;;0.70;0.45;;;;;;;;;;4928370;28;20495;-84
2023/05/08 10:15:38;;;;;;;0.40;0.30;;;;;;;;;;4943062;28;20141;-84
2023/05/08 10:18:07;;;;;;;0.20;0.10;;;;;;;;;;4911844;28;20047;-84
2023/05/08 10:21:03;;;;;;;0.20;0.10;;;;;;;;;;4924424;28;20081;-85
2023/05/08 10:23:36;;;;;;;0.30;0.10;;;;;;;;;;4935021;28;20047;-85
2023/05/08 10:26:09;;;;;;;0.20;0.10;;;;;;;;;;4920409;28;20051;-84
2023/05/08 10:31:49;;;;;;;0.20;0.17;;;;;;;;;;4928950;28;20051;-84
2023/05/08 10:34:18;;;;;;;0.25;0.20;;;;;;;;;;4926479;28;21808;-86
2023/05/08 10:36:51;;;;;;;0.40;0.30;;;;;;;;;;4922824;28;20035;-84
2023/05/08 10:39:18;;;;;;;0.20;0.10;;;;;;;;;;4929035;28;20122;-83
2023/05/08 10:41:48;;;;;;;0.20;0.10;;;;;;;;;;4918310;28;20626;-86
2023/05/08 10:44:18;;;;;;;0.43;0.38;;;;;;;;;;4921457;28;20049;-82
2023/05/08 10:46:59;;;;;;;0.60;0.28;;;;;;;;;;4922633;28;20506;-83
2023/05/08 10:49:35;;;;;;;0.50;0.50;;;;;;;;;;4927949;28;20123;-85
2023/05/08 10:52:20;;;;;;;0.20;0.10;;;;;;;;;;4921351;28;20039;-83
2023/05/08 10:55:08;;;;;;;0.20;0.20;;;;;;;;;;4931209;28;20058;-83
2023/05/08 10:57:34;;;;;;;0.20;0.10;;;;;;;;;;4931127;28;20043;-83
2023/05/08 11:00:00;;;;;;;0.30;0.20;;;;;;;;;;4927691;28;20115;-84
2023/05/08 11:02:35;;;;;;;0.40;0.13;;;;;;;;;;4935461;28;20054;-83
2023/05/08 11:05:16;;;;;;;0.35;0.30;;;;;;;;;;4925482;28;20078;-84
2023/05/08 11:07:56;;;;;;;1.45;0.55;;;;;;;;;;4929087;28;20035;-83
2023/05/08 11:10:31;;;;;;;0.35;0.35;;;;;;;;;;4927536;28;20563;-84
2023/05/08 11:13:06;;;;;;;0.95;0.68;;;;;;;;;;4922987;28;20039;-85
2023/05/08 11:15:49;;;;;;;0.20;0.10;;;;;;;;;;4917852;28;20749;-84
2023/05/08 11:18:16;;;;;;;0.45;0.30;;;;;;;;;;4907053;28;20150;-84
2023/05/08 11:20:57;;;;;;;0.70;0.47;;;;;;;;;;4925589;28;20134;-83
2023/05/08 11:23:30;;;;;;;0.20;0.20;;;;;;;;;;4924312;28;20039;-82
2023/05/08 11:26:06;;;;;;;0.30;0.30;;;;;;;;;;4936723;28;20130;-82
2023/05/08 11:28:36;;;;;;;0.20;0.10;;;;;;;;;;4936436;28;20049;-82
2023/05/08 11:31:03;;;;;;;0.80;0.63;;;;;;;;;;4927710;28;20586;-84
2023/05/08 11:34:06;;;;;;;;;;;;;;;;;;;;;
2023/05/08 11:36:36;;;;;;;0.40;0.28;;;;;;;;;;4936106;28;20476;-83
2023/05/08 11:39:07;;;;;;;0.77;0.35;;;;;;;;;;4926381;28;20039;-85
2023/05/08 11:41:33;;;;;;;0.20;0.13;;;;;;;;;;4926606;28;20395;-84
2023/05/08 11:43:59;;;;;;;0.30;0.30;;;;;;;;;;4921758;28;20069;-87
2023/05/08 11:46:33;;;;;;;0.20;0.10;;;;;;;;;;4929787;28;20047;-82
2023/05/08 11:49:02;;;;;;;0.65;0.45;;;;;;;;;;4929096;29;20050;-83
2023/05/08 11:51:32;;;;;;;0.20;0.10;;;;;;;;;;4921974;28;21982;-84
2023/05/08 11:54:02;;;;;;;0.20;0.20;;;;;;;;;;4929543;28;20051;-85
2023/05/08 11:56:28;;;;;;;1.15;0.60;;;;;;;;;;4936754;28;20126;-83
2023/05/08 11:59:03;;;;;;;0.77;0.38;;;;;;;;;;4930215;28;20050;-84
2023/05/08 12:01:33;;;;;;;0.55;0.30;;;;;;;;;;4938909;28;20534;-85
2023/05/08 12:04:00;;;;;;;0.20;0.10;;;;;;;;;;4936437;28;20054;-83
2023/05/08 12:06:30;;;;;;;0.40;0.20;;;;;;;;;;4934470;28;20043;-83
2023/05/08 12:08:57;;;;;;;0.32;0.20;;;;;;;;;;4922361;29;20039;-82
2023/05/08 12:11:23;;;;;;;0.28;0.22;;;;;;;;;;4931786;28;20039;-83
2023/05/08 12:13:53;;;;;;;0.32;0.30;;;;;;;;;;4932740;29;20039;-84
2023/05/08 12:16:23;;;;;;;0.55;0.22;;;;;;;;;;4933787;28;20039;-83
2023/05/08 12:18:50;;;;;;;0.20;0.13;;;;;;;;;;4938677;28;20055;-83
2023/05/08 12:21:22;;;;;;;0.20;0.10;;;;;;;;;;4929389;28;20144;-85
2023/05/08 12:23:57;;;;;;;0.20;0.20;;;;;;;;;;4929904;28;20043;-82
2023/05/08 12:26:23;;;;;;;0.20;0.10;;;;;;;;;;4928152;28;20038;-83
2023/05/08 12:28:56;;;;;;;0.30;0.30;;;;;;;;;;4923848;28;20492;-83
2023/05/08 12:31:22;;;;;;;0.55;0.30;;;;;;;;;;4928601;28;20058;-83
2023/05/08 12:33:54;;;;;;;0.43;0.30;;;;;;;;;;4931947;28;20074;-85
2023/05/08 12:36:21;;;;;;;0.25;0.25;;;;;;;;;;4928508;28;20685;-85
2023/05/08 12:38:47;;;;;;;0.22;0.10;;;;;;;;;;4930010;28;20038;-82
2023/05/08 12:41:22;;;;;;;0.40;0.32;;;;;;;;;;4913082;28;20039;-84
2023/05/08 12:43:48;;;;;;;0.40;0.20;;;;;;;;;;4925862;28;20041;-84
2023/05/08 12:46:16;;;;;;;0.73;0.60;;;;;;;;;;4925965;28;20109;-83
2023/05/08 12:48:42;;;;;;;0.25;0.15;;;;;;;;;;4931958;28;20071;-84
2023/05/08 12:51:20;;;;;;;1.95;0.40;;;;;;;;;;4933002;28;20107;-84
2023/05/08 12:54:01;;;;;;;0.30;0.15;;;;;;;;;;4958172;28;20046;-87
2023/05/08 12:56:30;;;;;;;0.20;0.20;;;;;;;;;;4934230;28;20155;-84
2023/05/08 12:59:01;;;;;;;0.57;0.43;;;;;;;;;;4926665;28;20073;-84
2023/05/08 13:01:36;;;;;;;0.22;0.20;;;;;;;;;;4931395;28;20184;-84
2023/05/08 13:04:06;;;;;;;0.20;0.10;;;;;;;;;;4948005;28;20054;-84
2023/05/08 13:06:44;;;;;;;0.93;0.40;;;;;;;;;;4951865;28;20042;-88
2023/05/08 13:09:23;;;;;;;1.63;0.77;;;;;;;;;;4929598;28;20088;-88
2023/05/08 13:11:49;;;;;;;0.20;0.20;;;;;;;;;;4928329;28;20134;-86
2023/05/08 13:14:16;;;;;;;0.30;0.30;;;;;;;;;;4930082;28;20034;-85
2023/05/08 13:16:48;;;;;;;0.45;0.28;;;;;;;;;;4933712;28;20043;-85
2023/05/08 13:19:19;;;;;;;0.30;0.20;;;;;;;;;;4922724;28;20487;-90
2023/05/08 13:21:54;;;;;;;0.30;0.25;;;;;;;;;;4933251;28;20082;-85
2023/05/08 13:24:45;;;;;;;0.82;0.20;;;;;;;;;;4943117;28;20079;-87
2023/05/08 13:27:15;;;;;;;0.20;0.13;;;;;;;;;;4940842;28;21469;-83
2023/05/08 13:29:41;;;;;;;1.33;0.30;;;;;;;;;;4928841;28;20105;-84
2023/05/08 13:32:07;;;;;;;0.30;0.10;;;;;;;;;;4932674;28;20067;-84
2023/05/08 13:34:33;;;;;;;0.63;0.47;;;;;;;;;;4933885;28;20338;-84
2023/05/08 13:36:59;;;;;;;0.40;0.20;;;;;;;;;;4921306;28;20125;-83
2023/05/08 13:39:35;;;;;;;0.25;0.15;;;;;;;;;;4924123;28;20079;-89
2023/05/08 13:42:21;;;;;;;0.20;0.10;;;;;;;;;;4932135;28;20039;-85
2023/05/08 13:47:53;;;;;;;0.45;0.32;;;;;;;;;;4922452;29;20055;-84
2023/05/08 13:50:28;;;;;;;0.20;0.10;;;;;;;;;;4909648;29;20118;-85
2023/05/08 13:52:57;;;;;;;0.20;0.10;;;;;;;;;;4943958;28;20043;-86
2023/05/08 13:58:45;;;;;;;0.28;0.13;;;;;;;;;;4913978;29;20089;-85
2023/05/08 14:04:29;;;;;;;0.20;0.20;;;;;;;;;;4943896;28;20074;-84
2023/05/08 14:06:59;;;;;;;0.40;0.30;;;;;;;;;;4932538;28;20533;-84
2023/05/08 14:10:24;;;;;;;0.30;0.20;;;;;;;;;;4940496;29;20540;-84
2023/05/08 14:12:50;;;;;;;0.77;0.50;;;;;;;;;;4875180;29;20107;-85
2023/05/08 14:15:18;;;;;;;0.43;0.40;;;;;;;;;;4937453;28;20047;-88
2023/05/08 14:17:44;;;;;;;0.25;0.22;;;;;;;;;;4932011;28;20073;-84
2023/05/08 14:20:11;;;;;;;0.20;0.10;;;;;;;;;;4930654;29;20097;-83
2023/05/08 14:22:58;;;;;;;0.70;0.32;;;;;;;;;;4935309;28;20050;-82
2023/05/08 14:25:30;;;;;;;0.50;0.50;;;;;;;;;;4954858;28;20078;-87
2023/05/08 14:27:56;;;;;;;0.63;0.47;;;;;;;;;;4933633;28;20364;-87
2023/05/08 14:30:25;;;;;;;0.20;0.20;;;;;;;;;;4930839;28;20047;-85
2023/05/08 14:32:51;;;;;;;0.30;0.30;;;;;;;;;;4933713;28;20043;-81
2023/05/08 14:35:17;;;;;;;0.63;0.30;;;;;;;;;;4934266;28;20078;-82
2023/05/08 14:37:46;;;;;;;0.20;0.20;;;;;;;;;;4933842;28;20471;-84
2023/05/08 14:40:29;;;;;;;0.50;0.28;;;;;;;;;;4933820;28;20134;-83
2023/05/08 14:42:58;;;;;;;;;;;;;;;;;;4923475;28;20058;-83
2023/05/08 14:45:24;;;;;;;0.77;0.68;;;;;;;;;;4929216;28;20020;-83
2023/05/08 14:47:50;;;;;;;1.20;0.55;;;;;;;;;;4945292;28;20067;-84
2023/05/08 14:50:35;;;;;;;0.20;0.20;;;;;;;;;;4923869;28;20058;-84
2023/05/08 14:53:01;;;;;;;0.28;0.25;;;;;;;;;;4930040;28;20035;-82
2023/05/08 14:55:36;;;;;;;0.63;0.57;;;;;;;;;;4931264;28;20571;-86
2023/05/08 14:58:09;;;;;;;0.20;0.20;;;;;;;;;;4930073;28;20058;-87
2023/05/08 15:00:41;;;;;;;0.40;0.32;;;;;;;;;;4950382;28;20454;-80
2023/05/08 15:03:07;;;;;;;0.20;0.10;;;;;;;;;;4948563;28;20471;-83
2023/05/08 15:05:33;;;;;;;0.30;0.10;;;;;;;;;;4933892;28;20050;-81
2023/05/08 15:08:11;;;;;;;0.20;0.10;;;;;;;;;;4935171;28;20054;-83
2023/05/08 15:10:37;;;;;;;0.40;0.38;;;;;;;;;;4929254;28;20134;-83
2023/05/08 15:13:03;;;;;;;0.40;0.30;;;;;;;;;;4930504;28;20066;-83
2023/05/08 15:15:29;;;;;;;0.20;0.13;;;;;;;;;;4931435;28;20093;-81
2023/05/08 15:17:55;;;;;;;0.20;0.10;;;;;;;;;;4933047;28;20047;-81
2023/05/08 15:20:21;;;;;;;0.20;0.10;;;;;;;;;;4926454;28;20105;-83
2023/05/08 15:22:48;;;;;;;0.20;0.13;;;;;;;;;;4935915;28;20057;-86
2023/05/08 15:25:14;;;;;;;0.20;0.10;;;;;;;;;;4932398;28;20043;-85
2023/05/08 15:27:40;;;;;;;0.30;0.20;;;;;;;;;;4933487;28;20510;-88
2023/05/08 15:30:31;;;;;;;;;;;;;;;;;;4960235;28;20086;-85
2023/05/08 15:32:57;;;;;;;0.20;0.20;;;;;;;;;;4933057;28;19926;-85
2023/05/08 15:35:23;;;;;;;0.20;0.10;;;;;;;;;;4928807;28;20089;-83
2023/05/08 15:37:50;;;;;;;0.20;0.10;;;;;;;;;;4930696;28;20051;-83
2023/05/08 15:40:19;;;;;;;0.20;0.10;;;;;;;;;;4928985;28;20126;-83
2023/05/08 15:42:51;;;;;;;0.40;0.38;;;;;;;;;;4930048;28;20305;-84
2023/05/08 15:45:20;;;;;;;0.20;0.10;;;;;;;;;;4931438;28;20106;-84
2023/05/08 15:47:49;;;;;;;0.20;0.10;;;;;;;;;;4927692;28;20043;-84
2023/05/08 15:50:18;;;;;;;0.20;0.00;;;;;;;;;;4924785;28;20047;-84
2023/05/08 15:52:49;;;;;;;0.65;0.40;;;;;;;;;;4928388;28;20075;-86
2023/05/08 15:55:16;;;;;;;0.28;0.25;;;;;;;;;;4944310;28;20048;-84